首页
METAR-TAF:

METAR-TAF

机场 :

彭萨科拉, 佛罗里达州, 美国

纬度: 30-21-22N, 经度: 087-19-24W, 海拔: 9米

当前天气观测

该预报发布于18分钟前的10:56 UTC
静风
温度 7°C
湿度 93%
气压 1019 hPa
能見度: 16.1公里
天空无云

METAR: KNPA 211056Z AUTO 00000KT 10SM CLR 07/06 A3010 RMK AO2 SLP193 T00720061

时间: 06:14 (11:14 UTC)

预报

预报有效从21日的 07点(UTC)到 22日的 07点(UTC)
风速6节,风向多变
能见度10公里或以上
天空无云
成为
从 21日的 11点(UTC)到 21日的 12点(UTC)
风速8节,风向西
能见度10公里或以上
天空无云
成为
从 20日的 02点(UTC)到 20日的 03点(UTC)
风速6节,风向多变
能見度: 2117
天空无云

TAF: KNPA 2107/2207 VRB06KT 9999 SKC QNH3004INS BECMG 2111/2112 26008KT 9999 SKC QNH3006INS BECMG 2002/2003 VRB06KT 9999 SKC QNH3008INS AUTOMATED SENSOR METWATCH 2107 TIL 2117 T20/2019Z T09/2110Z FN00200

超过4000个机场的气象观测和天气预报(METAR&TAF报告)。

可查询的气象台以黄色和红色小点在地图上表示。

将鼠标移到小点上方,可查看气象台名称。

然后点击查看天气观测和预报。

如需切换地图:点击带黑十字的绿色按钮放大地图;点击带横线的绿色按钮缩小地图;或者点击绿色箭头查看邻近地区的地图。


METAR-TAF: